Time;durP1;ratioP1;P1;durP2;ratioP2;P2;SDS_P1;SDS_P2;PMS_P1;PMS_P2;Temp;Humidity;BMP_temperature;BMP_pressure;BME280_temperature;BME280_humidity;BME280_pressure;Samples;Min_cycle;Max_cycle;Signal;HPM_P1;HPM_P2
2021/10/17 00:01:28;;;;;;;13.87;8.53;;;;;;;;;;5030035;28;20245;-66
2021/10/17 00:03:53;;;;;;;12.43;7.43;;;;;;;;;;5030506;28;20231;-67
2021/10/17 00:06:19;;;;;;;12.07;8.63;;;;;;;;;;5030087;28;20589;-75
2021/10/17 00:08:44;;;;;;;12.90;8.90;;;;;;;;;;5031876;28;20240;-71
2021/10/17 00:11:09;;;;;;;11.77;7.73;;;;;;;;;;5031810;28;20156;-71
2021/10/17 00:13:35;;;;;;;11.93;7.30;;;;;;;;;;5032030;28;20212;-72
2021/10/17 00:16:00;;;;;;;12.60;8.07;;;;;;;;;;5019882;28;20236;-74
2021/10/17 00:18:26;;;;;;;11.80;7.30;;;;;;;;;;5011862;28;20197;-67
2021/10/17 00:20:51;;;;;;;12.10;7.30;;;;;;;;;;5027327;28;20640;-76
2021/10/17 00:23:16;;;;;;;10.47;6.63;;;;;;;;;;5022843;28;20213;-73
2021/10/17 00:25:42;;;;;;;11.97;7.90;;;;;;;;;;5024378;28;20621;-65
2021/10/17 00:28:07;;;;;;;12.23;7.80;;;;;;;;;;5011739;28;20510;-72
2021/10/17 00:30:32;;;;;;;12.77;9.07;;;;;;;;;;5028885;28;20648;-67
2021/10/17 00:32:58;;;;;;;9.47;6.17;;;;;;;;;;5032510;28;20168;-69
2021/10/17 00:35:23;;;;;;;17.27;8.40;;;;;;;;;;5018393;28;20162;-73
2021/10/17 00:37:48;;;;;;;11.70;7.50;;;;;;;;;;5014310;28;20238;-77
2021/10/17 00:40:15;;;;;;;16.73;8.60;;;;;;;;;;5030998;28;20200;-75
2021/10/17 00:42:41;;;;;;;13.00;9.10;;;;;;;;;;5031604;28;20158;-76
2021/10/17 00:45:08;;;;;;;14.50;9.40;;;;;;;;;;5030882;28;20393;-75
2021/10/17 00:47:33;;;;;;;16.27;10.20;;;;;;;;;;5031278;28;20746;-73
2021/10/17 00:49:58;;;;;;;15.30;9.60;;;;;;;;;;5012716;28;20405;-74
2021/10/17 00:52:24;;;;;;;17.87;10.33;;;;;;;;;;5019751;28;20602;-75
2021/10/17 00:54:49;;;;;;;16.23;11.30;;;;;;;;;;5030741;28;20142;-75
2021/10/17 00:57:15;;;;;;;14.67;9.57;;;;;;;;;;5030930;28;20496;-73
2021/10/17 00:59:41;;;;;;;15.53;10.00;;;;;;;;;;5021010;28;20187;-71
2021/10/17 01:02:07;;;;;;;14.63;9.53;;;;;;;;;;5011512;28;20617;-75
2021/10/17 01:04:32;;;;;;;16.20;10.60;;;;;;;;;;5011948;28;20162;-76
2021/10/17 01:06:58;;;;;;;18.30;11.90;;;;;;;;;;5015847;28;20408;-76
2021/10/17 01:09:24;;;;;;;16.40;10.90;;;;;;;;;;5031703;28;20574;-74
2021/10/17 01:11:49;;;;;;;16.33;10.47;;;;;;;;;;5030849;28;20197;-73
2021/10/17 01:14:18;;;;;;;16.73;10.77;;;;;;;;;;5030516;28;20180;-74
2021/10/17 01:16:43;;;;;;;15.10;10.70;;;;;;;;;;5030564;28;20154;-71
2021/10/17 01:19:09;;;;;;;17.90;11.27;;;;;;;;;;5022081;28;20460;-77
2021/10/17 01:21:36;;;;;;;16.40;11.37;;;;;;;;;;5017058;28;20153;-76
2021/10/17 01:24:01;;;;;;;17.07;11.07;;;;;;;;;;5028343;28;20624;-74
2021/10/17 01:26:27;;;;;;;15.83;10.37;;;;;;;;;;5010697;28;20385;-74
2021/10/17 01:28:52;;;;;;;17.07;11.50;;;;;;;;;;5026397;28;20257;-75
2021/10/17 01:31:17;;;;;;;17.40;13.20;;;;;;;;;;5029862;28;20150;-69
2021/10/17 01:33:42;;;;;;;15.87;10.73;;;;;;;;;;5030122;28;20170;-67
2021/10/17 01:36:08;;;;;;;18.57;11.33;;;;;;;;;;5030230;28;20249;-74
2021/10/17 01:38:33;;;;;;;19.23;11.40;;;;;;;;;;5029314;28;20224;-77
2021/10/17 01:40:58;;;;;;;19.10;11.80;;;;;;;;;;5029880;28;20219;-68
2021/10/17 01:43:26;;;;;;;16.10;11.23;;;;;;;;;;5029941;28;20229;-68
2021/10/17 01:45:52;;;;;;;17.90;12.37;;;;;;;;;;5018537;28;20167;-71
2021/10/17 01:48:17;;;;;;;15.93;11.17;;;;;;;;;;5010507;28;20444;-76
2021/10/17 01:50:43;;;;;;;20.70;12.43;;;;;;;;;;5010565;28;20514;-70
2021/10/17 01:53:08;;;;;;;14.47;10.30;;;;;;;;;;5035844;28;20166;-75
2021/10/17 01:55:34;;;;;;;18.60;12.60;;;;;;;;;;5030168;28;20392;-74
2021/10/17 01:57:59;;;;;;;19.03;12.60;;;;;;;;;;5029996;28;20176;-75
2021/10/17 02:00:24;;;;;;;16.00;10.20;;;;;;;;;;5022413;28;20356;-73
2021/10/17 02:02:49;;;;;;;19.00;13.43;;;;;;;;;;5010575;28;20249;-72
2021/10/17 02:05:15;;;;;;;16.73;11.70;;;;;;;;;;5009242;28;20166;-73
2021/10/17 02:07:41;;;;;;;18.00;12.27;;;;;;;;;;5016069;28;20153;-72
2021/10/17 02:10:06;;;;;;;20.10;11.93;;;;;;;;;;5030425;28;20153;-69
2021/10/17 02:12:32;;;;;;;18.90;12.60;;;;;;;;;;5030116;28;20590;-73
2021/10/17 02:14:57;;;;;;;21.90;12.87;;;;;;;;;;5022676;28;20178;-67
2021/10/17 02:17:23;;;;;;;19.57;11.97;;;;;;;;;;5015261;28;20204;-67
2021/10/17 02:19:48;;;;;;;19.37;13.50;;;;;;;;;;5029231;28;20226;-72
2021/10/17 02:22:14;;;;;;;19.00;12.27;;;;;;;;;;5028680;28;20162;-78
2021/10/17 02:24:39;;;;;;;21.80;11.80;;;;;;;;;;5020580;28;20171;-79
2021/10/17 02:27:04;;;;;;;24.00;15.43;;;;;;;;;;5029288;28;20303;-76
2021/10/17 02:29:30;;;;;;;23.83;15.30;;;;;;;;;;5014796;28;20163;-79
2021/10/17 02:31:59;;;;;;;21.87;14.60;;;;;;;;;;5023641;28;20174;-82
2021/10/17 02:34:25;;;;;;;22.40;14.40;;;;;;;;;;5023154;28;20212;-79
2021/10/17 02:36:50;;;;;;;24.17;15.97;;;;;;;;;;5029425;28;20460;-80
2021/10/17 02:39:15;;;;;;;26.33;15.77;;;;;;;;;;5017439;28;20209;-82
2021/10/17 02:41:41;;;;;;;23.00;15.20;;;;;;;;;;5010309;28;20151;-79
2021/10/17 02:44:06;;;;;;;20.17;14.73;;;;;;;;;;5017117;28;20228;-80
2021/10/17 02:46:31;;;;;;;23.90;16.40;;;;;;;;;;5010824;28;20163;-80
2021/10/17 02:48:57;;;;;;;23.63;15.30;;;;;;;;;;5010370;28;20190;-77
2021/10/17 02:51:22;;;;;;;26.03;17.37;;;;;;;;;;5010144;28;20640;-80
2021/10/17 02:53:49;;;;;;;21.90;13.17;;;;;;;;;;5014803;28;20163;-80
2021/10/17 02:56:14;;;;;;;22.77;14.90;;;;;;;;;;5017719;28;20172;-79
2021/10/17 02:58:40;;;;;;;22.77;14.60;;;;;;;;;;5025069;28;20445;-81
2021/10/17 03:01:05;;;;;;;22.00;15.13;;;;;;;;;;5013524;28;20220;-72
2021/10/17 03:03:30;;;;;;;21.37;15.73;;;;;;;;;;5031174;28;20181;-79
2021/10/17 03:05:56;;;;;;;21.63;15.87;;;;;;;;;;5034096;28;20169;-80
2021/10/17 03:08:21;;;;;;;25.57;15.60;;;;;;;;;;5032994;28;20169;-82
2021/10/17 03:10:46;;;;;;;18.73;12.40;;;;;;;;;;5033602;28;20150;-74
2021/10/17 03:13:12;;;;;;;29.13;14.30;;;;;;;;;;5021758;28;20185;-80
2021/10/17 03:15:37;;;;;;;21.00;13.70;;;;;;;;;;5033300;28;20532;-74
2021/10/17 03:18:02;;;;;;;24.80;16.40;;;;;;;;;;5031594;28;20202;-71
2021/10/17 03:20:27;;;;;;;24.70;14.80;;;;;;;;;;5031249;28;20220;-75
2021/10/17 03:22:53;;;;;;;22.40;15.60;;;;;;;;;;5020648;28;20158;-72
2021/10/17 03:25:18;;;;;;;21.50;14.83;;;;;;;;;;5024880;28;20307;-76
2021/10/17 03:27:43;;;;;;;24.33;15.27;;;;;;;;;;5031776;28;20178;-75
2021/10/17 03:30:09;;;;;;;22.50;15.73;;;;;;;;;;5032965;28;20161;-75
2021/10/17 03:32:34;;;;;;;23.37;13.73;;;;;;;;;;5018939;28;20171;-79
2021/10/17 03:35:03;;;;;;;24.63;18.27;;;;;;;;;;5012982;28;20159;-80
2021/10/17 03:37:30;;;;;;;25.23;15.30;;;;;;;;;;5017404;28;20268;-80
2021/10/17 03:39:55;;;;;;;23.57;16.20;;;;;;;;;;5012409;28;20464;-79
2021/10/17 03:42:20;;;;;;;25.63;17.67;;;;;;;;;;5012764;28;20777;-74
2021/10/17 03:44:46;;;;;;;22.97;15.63;;;;;;;;;;5013618;28;20216;-77
2021/10/17 03:47:11;;;;;;;24.67;16.03;;;;;;;;;;5012638;28;20250;-73
2021/10/17 03:49:36;;;;;;;25.93;16.90;;;;;;;;;;5013095;28;20151;-80
2021/10/17 03:52:02;;;;;;;24.57;17.57;;;;;;;;;;5023579;28;20162;-77
2021/10/17 03:54:27;;;;;;;27.17;15.93;;;;;;;;;;5025437;28;20663;-76
2021/10/17 03:56:52;;;;;;;25.73;16.40;;;;;;;;;;5020998;28;20174;-76
2021/10/17 03:59:18;;;;;;;30.77;17.27;;;;;;;;;;5032385;28;20237;-77
2021/10/17 04:01:43;;;;;;;27.20;17.17;;;;;;;;;;5032903;28;20176;-77
2021/10/17 04:04:09;;;;;;;29.90;18.80;;;;;;;;;;5032421;28;20170;-76
2021/10/17 04:06:35;;;;;;;28.40;17.93;;;;;;;;;;5030276;28;20172;-80
2021/10/17 04:09:00;;;;;;;26.50;16.70;;;;;;;;;;5015443;28;20173;-75
2021/10/17 04:11:26;;;;;;;23.93;16.00;;;;;;;;;;5030912;28;20482;-73
2021/10/17 04:13:51;;;;;;;24.27;16.07;;;;;;;;;;5033057;28;20217;-75
2021/10/17 04:16:16;;;;;;;29.40;16.87;;;;;;;;;;5032214;28;20166;-81
2021/10/17 04:18:41;;;;;;;27.17;18.07;;;;;;;;;;5032574;28;20683;-74
2021/10/17 04:21:07;;;;;;;21.93;13.63;;;;;;;;;;5031931;28;20169;-80
2021/10/17 04:23:32;;;;;;;25.53;17.93;;;;;;;;;;5032225;28;20150;-74
2021/10/17 04:25:57;;;;;;;28.30;22.90;;;;;;;;;;5032117;28;20639;-78
2021/10/17 04:28:23;;;;;;;23.00;15.43;;;;;;;;;;5018146;28;20159;-78
2021/10/17 04:30:48;;;;;;;29.80;17.60;;;;;;;;;;5013562;28;20200;-72
2021/10/17 04:33:13;;;;;;;21.53;13.10;;;;;;;;;;5012887;28;20154;-77
2021/10/17 04:35:39;;;;;;;21.30;13.60;;;;;;;;;;5012259;28;20641;-80
2021/10/17 04:38:05;;;;;;;25.07;16.07;;;;;;;;;;5029887;28;20256;-76
2021/10/17 04:40:31;;;;;;;26.40;15.77;;;;;;;;;;5031926;28;20161;-77
2021/10/17 04:42:56;;;;;;;25.77;16.10;;;;;;;;;;5031959;28;20150;-76
2021/10/17 04:45:21;;;;;;;25.50;13.53;;;;;;;;;;5017108;28;20167;-74
2021/10/17 04:47:47;;;;;;;28.00;17.83;;;;;;;;;;5011700;28;20151;-78
2021/10/17 04:50:12;;;;;;;25.03;16.67;;;;;;;;;;5012671;28;20167;-75
2021/10/17 04:52:37;;;;;;;30.13;17.00;;;;;;;;;;5011319;28;20155;-81
2021/10/17 04:55:07;;;;;;;26.00;16.40;;;;;;;;;;5012693;28;20155;-76
2021/10/17 04:57:33;;;;;;;24.23;15.47;;;;;;;;;;5031128;28;20153;-71
2021/10/17 04:59:58;;;;;;;23.93;15.57;;;;;;;;;;5018714;28;20457;-75
2021/10/17 05:02:23;;;;;;;28.03;16.73;;;;;;;;;;5011927;28;20699;-80
2021/10/17 05:04:48;;;;;;;27.27;15.73;;;;;;;;;;5016883;28;20660;-80
2021/10/17 05:07:14;;;;;;;24.60;15.67;;;;;;;;;;5020614;28;20596;-76
2021/10/17 05:09:39;;;;;;;24.53;16.47;;;;;;;;;;5021616;28;20170;-73
2021/10/17 05:12:04;;;;;;;24.77;16.47;;;;;;;;;;5026532;28;20177;-73
2021/10/17 05:14:30;;;;;;;20.80;12.53;;;;;;;;;;5030525;28;20761;-73
2021/10/17 05:16:55;;;;;;;23.97;15.00;;;;;;;;;;5028370;28;20165;-69
2021/10/17 05:19:20;;;;;;;25.93;14.90;;;;;;;;;;5012020;28;20637;-69
2021/10/17 05:21:46;;;;;;;21.77;14.43;;;;;;;;;;5031304;28;20162;-69
2021/10/17 05:24:11;;;;;;;23.47;15.10;;;;;;;;;;5027942;28;20166;-72
2021/10/17 05:26:37;;;;;;;20.97;14.27;;;;;;;;;;5029960;28;20425;-72
2021/10/17 05:29:02;;;;;;;23.63;13.70;;;;;;;;;;5031004;28;20224;-69
2021/10/17 05:31:27;;;;;;;25.17;15.87;;;;;;;;;;5030965;28;20577;-71
2021/10/17 05:33:53;;;;;;;20.57;13.60;;;;;;;;;;5031483;28;20542;-75
2021/10/17 05:36:18;;;;;;;26.43;17.37;;;;;;;;;;5031922;28;20227;-75
2021/10/17 05:38:44;;;;;;;20.83;13.40;;;;;;;;;;5044892;28;20189;-75
2021/10/17 05:41:09;;;;;;;26.10;15.77;;;;;;;;;;5031983;28;20620;-74
2021/10/17 05:43:34;;;;;;;23.40;16.40;;;;;;;;;;5030631;28;20606;-69
2021/10/17 05:46:00;;;;;;;27.53;18.10;;;;;;;;;;5011027;28;20170;-74
2021/10/17 05:48:25;;;;;;;25.73;17.10;;;;;;;;;;5010885;28;20162;-71
2021/10/17 05:50:50;;;;;;;24.97;16.40;;;;;;;;;;5010618;28;20154;-69
2021/10/17 05:53:16;;;;;;;24.17;17.23;;;;;;;;;;5010731;28;20169;-78
2021/10/17 05:55:41;;;;;;;28.83;17.37;;;;;;;;;;5010252;28;20181;-75
2021/10/17 05:58:07;;;;;;;29.37;18.23;;;;;;;;;;5011239;28;20150;-73
2021/10/17 06:00:32;;;;;;;25.67;16.70;;;;;;;;;;5028171;28;20235;-74
2021/10/17 06:02:57;;;;;;;28.20;18.20;;;;;;;;;;5030741;28;20187;-78
2021/10/17 06:05:23;;;;;;;28.30;18.23;;;;;;;;;;5013022;28;20157;-79
2021/10/17 06:07:48;;;;;;;29.10;18.63;;;;;;;;;;5011159;28;20139;-79
2021/10/17 06:10:13;;;;;;;28.47;17.97;;;;;;;;;;5026070;28;20547;-76
2021/10/17 06:12:40;;;;;;;28.67;16.97;;;;;;;;;;5031129;28;20189;-78
2021/10/17 06:15:06;;;;;;;27.83;17.17;;;;;;;;;;5015308;28;20244;-71
2021/10/17 06:17:32;;;;;;;29.17;17.23;;;;;;;;;;5028695;28;20423;-70
2021/10/17 06:19:57;;;;;;;30.77;19.33;;;;;;;;;;5028068;28;20447;-71
2021/10/17 06:22:23;;;;;;;27.37;18.47;;;;;;;;;;5029901;28;20151;-73
2021/10/17 06:24:48;;;;;;;31.50;18.90;;;;;;;;;;5027334;28;20184;-76
2021/10/17 06:27:13;;;;;;;29.23;17.33;;;;;;;;;;5031089;28;20609;-73
2021/10/17 06:29:39;;;;;;;30.90;18.87;;;;;;;;;;5035167;28;20162;-67
2021/10/17 06:32:04;;;;;;;27.50;15.10;;;;;;;;;;5032930;28;20177;-80
2021/10/17 06:34:30;;;;;;;28.50;18.27;;;;;;;;;;5031500;28;20595;-76
2021/10/17 06:36:56;;;;;;;32.50;19.93;;;;;;;;;;5034585;28;20602;-78
2021/10/17 06:39:21;;;;;;;29.40;18.57;;;;;;;;;;5034502;28;20188;-73
2021/10/17 06:41:47;;;;;;;31.13;19.80;;;;;;;;;;5034329;28;20780;-74
2021/10/17 06:44:12;;;;;;;31.60;20.17;;;;;;;;;;5034844;28;20556;-77
2021/10/17 06:46:37;;;;;;;34.80;20.17;;;;;;;;;;5027613;28;20217;-76
2021/10/17 06:49:03;;;;;;;32.57;21.17;;;;;;;;;;5015146;28;20178;-77
2021/10/17 06:51:28;;;;;;;30.73;20.40;;;;;;;;;;5025923;28;20158;-76
2021/10/17 06:53:53;;;;;;;30.40;19.70;;;;;;;;;;5033815;28;20224;-71
2021/10/17 06:56:19;;;;;;;36.87;21.37;;;;;;;;;;5033699;28;20150;-69
2021/10/17 06:58:44;;;;;;;32.70;19.70;;;;;;;;;;5031448;28;20228;-78
2021/10/17 07:01:09;;;;;;;30.70;20.47;;;;;;;;;;5024195;28;20598;-69
2021/10/17 07:03:35;;;;;;;32.70;18.77;;;;;;;;;;5020320;28;20157;-72
2021/10/17 07:06:03;;;;;;;36.50;21.30;;;;;;;;;;5013669;28;20706;-70
2021/10/17 07:08:28;;;;;;;33.33;21.20;;;;;;;;;;5012453;28;20184;-79
2021/10/17 07:10:54;;;;;;;27.07;19.30;;;;;;;;;;5032312;28;20388;-73
2021/10/17 07:13:19;;;;;;;36.87;18.23;;;;;;;;;;5033236;28;20194;-79
2021/10/17 07:15:44;;;;;;;32.57;21.17;;;;;;;;;;5033603;28;20159;-80
2021/10/17 07:18:09;;;;;;;31.93;20.50;;;;;;;;;;5025651;28;20547;-75
2021/10/17 07:20:35;;;;;;;31.13;18.90;;;;;;;;;;5027063;28;20249;-72
2021/10/17 07:23:00;;;;;;;29.00;18.47;;;;;;;;;;5033143;28;20698;-73
2021/10/17 07:25:25;;;;;;;29.80;20.43;;;;;;;;;;5033676;28;20177;-71
2021/10/17 07:27:52;;;;;;;29.87;19.43;;;;;;;;;;5032668;28;20154;-79
2021/10/17 07:30:18;;;;;;;28.90;17.30;;;;;;;;;;5031773;28;20632;-79
2021/10/17 07:32:43;;;;;;;30.20;19.67;;;;;;;;;;5033990;28;20427;-84
2021/10/17 07:35:08;;;;;;;33.90;22.20;;;;;;;;;;5035902;28;20590;-75
2021/10/17 07:37:35;;;;;;;33.00;21.63;;;;;;;;;;5037743;28;20214;-86
2021/10/17 07:40:00;;;;;;;35.37;22.50;;;;;;;;;;5036903;28;20197;-72
2021/10/17 07:42:25;;;;;;;34.97;22.10;;;;;;;;;;5018162;28;20942;-75
2021/10/17 07:44:51;;;;;;;31.90;20.10;;;;;;;;;;5014045;28;20252;-78
2021/10/17 07:47:16;;;;;;;32.13;21.63;;;;;;;;;;5014511;28;20591;-75
2021/10/17 07:49:41;;;;;;;29.63;18.37;;;;;;;;;;5015349;28;20167;-77
2021/10/17 07:52:07;;;;;;;33.60;19.57;;;;;;;;;;5015062;28;20171;-74
2021/10/17 07:54:35;;;;;;;28.70;20.37;;;;;;;;;;5013303;28;20146;-84
2021/10/17 07:57:00;;;;;;;33.40;22.20;;;;;;;;;;5019312;28;20163;-76
2021/10/17 07:59:26;;;;;;;35.73;22.50;;;;;;;;;;5014096;28;20487;-74
2021/10/17 08:01:51;;;;;;;30.80;21.40;;;;;;;;;;5023108;28;20166;-74
2021/10/17 08:04:17;;;;;;;34.17;21.90;;;;;;;;;;5029396;28;20162;-75
2021/10/17 08:06:42;;;;;;;30.40;20.70;;;;;;;;;;5042409;28;20166;-82
2021/10/17 08:09:07;;;;;;;38.60;22.23;;;;;;;;;;5020592;28;20596;-72
2021/10/17 08:11:32;;;;;;;33.87;22.40;;;;;;;;;;5034584;28;20197;-78
2021/10/17 08:13:58;;;;;;;39.00;21.83;;;;;;;;;;5034851;28;20167;-84
2021/10/17 08:16:23;;;;;;;39.17;24.20;;;;;;;;;;5033185;28;20177;-85
2021/10/17 08:18:48;;;;;;;34.40;22.60;;;;;;;;;;5017963;28;20232;-81
2021/10/17 08:21:14;;;;;;;33.03;22.37;;;;;;;;;;5013764;28;20150;-85
2021/10/17 08:23:40;;;;;;;35.90;21.47;;;;;;;;;;5020298;28;20170;-82
2021/10/17 08:26:06;;;;;;;31.00;20.27;;;;;;;;;;5019803;28;20162;-74
2021/10/17 08:28:31;;;;;;;33.20;20.33;;;;;;;;;;5027191;28;20452;-74
2021/10/17 08:30:58;;;;;;;31.60;21.73;;;;;;;;;;5028610;28;20201;-86
2021/10/17 08:33:24;;;;;;;28.07;20.03;;;;;;;;;;5019163;28;20652;-77
2021/10/17 08:35:50;;;;;;;32.87;22.00;;;;;;;;;;5017653;28;20429;-73
2021/10/17 08:38:16;;;;;;;33.50;20.53;;;;;;;;;;5031627;28;20655;-78
2021/10/17 08:40:41;;;;;;;35.67;21.43;;;;;;;;;;5030966;28;21024;-81
2021/10/17 08:43:06;;;;;;;34.23;20.53;;;;;;;;;;5031027;28;20158;-75
2021/10/17 08:45:32;;;;;;;34.70;22.03;;;;;;;;;;5029787;28;20268;-71
2021/10/17 08:47:58;;;;;;;32.63;22.17;;;;;;;;;;5025119;28;20181;-77
2021/10/17 08:50:23;;;;;;;37.77;22.30;;;;;;;;;;5031410;28;20150;-75
2021/10/17 08:52:48;;;;;;;33.37;20.23;;;;;;;;;;5031659;28;20463;-79
2021/10/17 08:55:14;;;;;;;39.30;22.90;;;;;;;;;;5030486;28;20174;-79
2021/10/17 08:57:39;;;;;;;31.03;21.30;;;;;;;;;;5031351;28;20170;-79
2021/10/17 09:00:23;;;;;;;33.67;21.50;;;;;;;;;;5029378;28;20209;-83
2021/10/17 09:02:48;;;;;;;34.63;21.80;;;;;;;;;;5025608;28;20554;-71
2021/10/17 09:05:14;;;;;;;33.07;22.70;;;;;;;;;;5027435;28;20471;-70
2021/10/17 09:07:39;;;;;;;31.33;20.77;;;;;;;;;;5029862;28;20629;-79
2021/10/17 09:10:15;;;;;;;35.33;21.13;;;;;;;;;;5026036;28;20283;-75
2021/10/17 09:12:45;;;;;;;33.20;19.23;;;;;;;;;;5015659;28;20190;-77
2021/10/17 09:15:18;;;;;;;29.97;21.70;;;;;;;;;;5021543;28;20755;-79
2021/10/17 09:18:07;;;;;;;29.07;19.77;;;;;;;;;;5032268;28;20409;-84
2021/10/17 09:20:49;;;;;;;32.27;20.73;;;;;;;;;;5018513;28;20444;-75
2021/10/17 09:23:16;;;;;;;36.97;23.93;;;;;;;;;;5031024;28;20454;-67
2021/10/17 09:25:41;;;;;;;31.87;21.33;;;;;;;;;;5017765;28;20463;-67
2021/10/17 09:28:17;;;;;;;36.17;21.77;;;;;;;;;;5011443;28;20394;-81
2021/10/17 09:30:43;;;;;;;30.80;19.50;;;;;;;;;;5012149;28;20150;-83
2021/10/17 09:33:20;;;;;;;26.80;18.43;;;;;;;;;;5029241;28;20407;-83
2021/10/17 09:35:45;;;;;;;31.83;18.70;;;;;;;;;;5033404;28;20428;-74
2021/10/17 09:38:10;;;;;;;28.10;19.73;;;;;;;;;;5032972;28;20790;-74
2021/10/17 09:40:38;;;;;;;31.07;18.10;;;;;;;;;;5031755;28;20588;-81
2021/10/17 09:43:10;;;;;;;31.60;19.80;;;;;;;;;;5032047;28;20535;-81
2021/10/17 09:45:36;;;;;;;35.00;21.00;;;;;;;;;;5016152;28;20417;-82
2021/10/17 09:48:01;;;;;;;32.77;19.90;;;;;;;;;;5012318;28;20388;-72
2021/10/17 09:50:27;;;;;;;31.60;20.30;;;;;;;;;;5011768;28;20198;-74
2021/10/17 09:53:04;;;;;;;27.33;18.73;;;;;;;;;;5011617;28;20171;-73
2021/10/17 09:55:32;;;;;;;26.93;19.57;;;;;;;;;;5011367;28;20173;-70
2021/10/17 09:57:59;;;;;;;30.60;19.80;;;;;;;;;;5015354;28;20405;-89
2021/10/17 10:00:24;;;;;;;32.83;20.10;;;;;;;;;;5027876;28;20458;-77
2021/10/17 10:02:50;;;;;;;28.50;17.40;;;;;;;;;;5027992;28;20595;-85
2021/10/17 10:05:16;;;;;;;26.63;17.30;;;;;;;;;;5012025;28;20270;-73
2021/10/17 10:07:42;;;;;;;32.73;19.30;;;;;;;;;;5010175;28;20386;-74
2021/10/17 10:10:08;;;;;;;31.87;19.00;;;;;;;;;;5022786;28;20520;-74
2021/10/17 10:12:34;;;;;;;31.47;18.70;;;;;;;;;;5014749;28;20301;-74
2021/10/17 10:14:59;;;;;;;30.43;21.30;;;;;;;;;;5010075;28;20494;-78
2021/10/17 10:17:27;;;;;;;28.00;19.80;;;;;;;;;;5029850;28;21165;-75
2021/10/17 10:19:53;;;;;;;26.57;18.60;;;;;;;;;;5028429;28;20219;-74
2021/10/17 10:22:18;;;;;;;28.30;18.33;;;;;;;;;;5029483;28;20396;-81
2021/10/17 10:24:44;;;;;;;35.20;19.73;;;;;;;;;;5028711;28;20644;-84
2021/10/17 10:27:10;;;;;;;27.93;18.67;;;;;;;;;;5024760;28;20221;-86
2021/10/17 10:29:35;;;;;;;26.67;14.93;;;;;;;;;;5012545;28;20414;-71
2021/10/17 10:32:01;;;;;;;28.57;19.60;;;;;;;;;;5024610;28;20166;-77
2021/10/17 10:34:30;;;;;;;25.97;18.33;;;;;;;;;;5012634;28;20648;-80
2021/10/17 10:36:55;;;;;;;30.97;20.60;;;;;;;;;;5021318;28;20470;-70
2021/10/17 10:39:32;;;;;;;27.70;15.97;;;;;;;;;;5014128;28;20457;-74
2021/10/17 10:42:01;;;;;;;30.80;18.90;;;;;;;;;;5022811;28;20162;-73
2021/10/17 10:44:29;;;;;;;27.77;18.00;;;;;;;;;;5024176;28;20595;-73
2021/10/17 10:46:55;;;;;;;28.43;15.47;;;;;;;;;;5027583;28;20462;-71
2021/10/17 10:49:37;;;;;;;34.23;17.50;;;;;;;;;;5029325;28;20412;-78
2021/10/17 10:52:02;;;;;;;30.67;18.90;;;;;;;;;;5028796;28;20427;-77
2021/10/17 10:54:28;;;;;;;30.90;18.97;;;;;;;;;;5030320;28;20417;-74
2021/10/17 10:56:56;;;;;;;29.57;17.77;;;;;;;;;;5030833;28;20523;-80
2021/10/17 10:59:29;;;;;;;31.30;20.60;;;;;;;;;;5030725;28;20684;-82
2021/10/17 11:02:18;;;;;;;29.80;18.03;;;;;;;;;;5027167;28;20484;-83
2021/10/17 11:04:46;;;;;;;42.37;15.53;;;;;;;;;;5026257;28;20408;-76
2021/10/17 11:07:27;;;;;;;29.23;18.07;;;;;;;;;;5031883;28;20388;-79
2021/10/17 11:09:53;;;;;;;26.43;18.87;;;;;;;;;;5030196;28;20435;-77
2021/10/17 11:12:37;;;;;;;29.40;14.97;;;;;;;;;;5030603;28;20416;-76
2021/10/17 11:15:02;;;;;;;28.00;18.10;;;;;;;;;;5033894;28;20397;-80
2021/10/17 11:17:29;;;;;;;28.77;19.63;;;;;;;;;;5034358;28;20415;-79
2021/10/17 11:19:54;;;;;;;28.73;18.80;;;;;;;;;;5034602;28;20193;-80
2021/10/17 11:22:19;;;;;;;33.70;18.90;;;;;;;;;;5022895;28;20801;-82
2021/10/17 11:24:45;;;;;;;25.73;17.50;;;;;;;;;;5014861;28;20159;-82
2021/10/17 11:27:12;;;;;;;31.33;18.87;;;;;;;;;;5014415;28;20166;-83
2021/10/17 11:29:44;;;;;;;30.57;14.83;;;;;;;;;;5016561;28;20585;-74
2021/10/17 11:32:16;;;;;;;29.20;18.87;;;;;;;;;;5014568;28;20476;-82
2021/10/17 11:34:41;;;;;;;26.93;15.73;;;;;;;;;;5013700;28;20492;-87
2021/10/17 11:37:21;;;;;;;31.50;19.23;;;;;;;;;;5014152;28;20536;-79
2021/10/17 11:39:54;;;;;;;28.90;16.70;;;;;;;;;;5014007;28;20200;-83
2021/10/17 11:42:20;;;;;;;30.23;16.40;;;;;;;;;;5014099;28;20957;-68
2021/10/17 11:44:45;;;;;;;31.37;20.70;;;;;;;;;;5020683;28;20421;-70
2021/10/17 11:47:11;;;;;;;29.03;20.00;;;;;;;;;;5034176;28;20166;-82
2021/10/17 11:49:36;;;;;;;28.23;19.13;;;;;;;;;;5026576;28;20159;-69
2021/10/17 11:52:05;;;;;;;23.80;16.93;;;;;;;;;;5013593;28;20217;-73
2021/10/17 11:54:40;;;;;;;28.37;18.50;;;;;;;;;;5013046;28;20622;-81
2021/10/17 11:57:05;;;;;;;30.53;19.70;;;;;;;;;;5013451;28;20461;-85
2021/10/17 11:59:31;;;;;;;31.63;18.67;;;;;;;;;;5029613;28;20885;-73
2021/10/17 12:01:56;;;;;;;31.37;18.87;;;;;;;;;;5029424;28;20214;-84
2021/10/17 12:04:39;;;;;;;29.50;19.33;;;;;;;;;;5025499;28;20537;-76
2021/10/17 12:07:04;;;;;;;26.97;18.47;;;;;;;;;;5032989;28;20165;-80
2021/10/17 12:09:29;;;;;;;26.90;17.77;;;;;;;;;;5033308;28;20423;-74
2021/10/17 12:11:59;;;;;;;30.67;18.77;;;;;;;;;;5032316;28;20247;-82
2021/10/17 12:14:25;;;;;;;28.70;19.10;;;;;;;;;;5032967;28;20154;-79
2021/10/17 12:16:53;;;;;;;25.53;18.83;;;;;;;;;;5023491;28;20432;-75
2021/10/17 12:19:23;;;;;;;29.70;19.13;;;;;;;;;;5019040;28;20456;-70
2021/10/17 12:21:49;;;;;;;29.83;20.20;;;;;;;;;;5017370;28;20896;-79
2021/10/17 12:24:14;;;;;;;27.17;18.70;;;;;;;;;;5013143;28;20451;-80
2021/10/17 12:26:48;;;;;;;27.57;18.60;;;;;;;;;;5014519;28;20238;-68
2021/10/17 12:29:17;;;;;;;29.10;19.73;;;;;;;;;;5015462;28;20283;-88
2021/10/17 12:31:52;;;;;;;31.33;20.20;;;;;;;;;;5017688;28;20386;-82
2021/10/17 12:34:35;;;;;;;26.90;18.43;;;;;;;;;;5015526;28;20401;-75
2021/10/17 12:37:00;;;;;;;26.40;16.37;;;;;;;;;;5013128;28;20468;-80
2021/10/17 12:39:25;;;;;;;25.70;17.50;;;;;;;;;;5014295;28;20479;-73
2021/10/17 12:41:56;;;;;;;26.40;17.67;;;;;;;;;;5014670;28;20174;-72
2021/10/17 12:44:21;;;;;;;27.83;17.40;;;;;;;;;;5030533;28;20184;-73
2021/10/17 12:47:00;;;;;;;28.93;17.77;;;;;;;;;;5031150;28;20389;-81
2021/10/17 12:49:35;;;;;;;27.67;18.57;;;;;;;;;;5025625;28;20173;-84
2021/10/17 12:52:00;;;;;;;26.80;16.33;;;;;;;;;;5025510;28;20407;-76
2021/10/17 12:54:27;;;;;;;43.47;27.20;;;;;;;;;;5031927;28;20392;-68
2021/10/17 12:56:52;;;;;;;28.33;18.93;;;;;;;;;;5024626;28;20177;-79
2021/10/17 12:59:20;;;;;;;26.97;17.13;;;;;;;;;;5012292;28;20449;-71
2021/10/17 13:02:17;;;;;;;29.83;18.40;;;;;;;;;;5011925;28;20191;-77
2021/10/17 13:04:48;;;;;;;26.27;16.97;;;;;;;;;;5033015;28;20515;-72
2021/10/17 13:07:22;;;;;;;24.83;16.80;;;;;;;;;;5024357;28;20420;-75
2021/10/17 13:09:49;;;;;;;23.30;15.20;;;;;;;;;;5021043;28;20564;-81
2021/10/17 13:12:16;;;;;;;26.23;16.73;;;;;;;;;;5022847;28;20412;-75
2021/10/17 13:15:00;;;;;;;29.90;16.90;;;;;;;;;;5016497;28;20412;-82
2021/10/17 13:17:26;;;;;;;26.90;19.83;;;;;;;;;;5017860;28;20464;-77
2021/10/17 13:19:51;;;;;;;29.07;16.00;;;;;;;;;;5018978;28;20482;-74
2021/10/17 13:22:16;;;;;;;26.63;16.27;;;;;;;;;;5031057;28;20392;-74
2021/10/17 13:24:42;;;;;;;33.33;17.87;;;;;;;;;;5029729;28;20529;-77
2021/10/17 13:27:09;;;;;;;26.43;17.07;;;;;;;;;;5030653;28;20569;-76
2021/10/17 13:29:34;;;;;;;28.60;16.73;;;;;;;;;;5029176;28;20227;-78
2021/10/17 13:32:01;;;;;;;22.87;15.93;;;;;;;;;;5021175;28;20421;-75
2021/10/17 13:34:26;;;;;;;24.40;16.00;;;;;;;;;;5040452;28;20299;-76
2021/10/17 13:36:51;;;;;;;29.17;16.83;;;;;;;;;;5029042;28;20546;-76
2021/10/17 13:39:17;;;;;;;32.73;16.13;;;;;;;;;;5020203;28;20194;-78
2021/10/17 13:41:42;;;;;;;23.40;16.23;;;;;;;;;;5022669;28;20169;-75
2021/10/17 13:44:07;;;;;;;21.00;15.70;;;;;;;;;;5025776;28;20648;-80
2021/10/17 13:46:36;;;;;;;23.60;15.07;;;;;;;;;;5026719;28;20193;-76
2021/10/17 13:49:01;;;;;;;23.10;15.10;;;;;;;;;;5030414;28;20169;-81
2021/10/17 13:51:27;;;;;;;23.87;16.37;;;;;;;;;;5018622;28;20409;-78
2021/10/17 13:53:53;;;;;;;21.70;13.30;;;;;;;;;;5034745;28;20192;-73
2021/10/17 13:56:18;;;;;;;22.10;15.10;;;;;;;;;;5029527;28;20239;-68
2021/10/17 13:58:44;;;;;;;17.80;12.60;;;;;;;;;;5028647;28;20955;-68
2021/10/17 14:01:10;;;;;;;23.67;15.20;;;;;;;;;;5018320;28;20162;-68
2021/10/17 14:03:35;;;;;;;20.90;12.43;;;;;;;;;;5025431;28;20299;-67
2021/10/17 14:06:00;;;;;;;26.37;15.97;;;;;;;;;;5010233;28;20258;-68
2021/10/17 14:08:26;;;;;;;19.87;13.70;;;;;;;;;;5009890;28;20177;-67
2021/10/17 14:10:54;;;;;;;22.83;15.47;;;;;;;;;;5010092;28;20178;-66
2021/10/17 14:13:19;;;;;;;19.60;14.43;;;;;;;;;;5010282;28;20629;-74
2021/10/17 14:15:44;;;;;;;25.83;16.10;;;;;;;;;;5010155;28;20479;-69